WXM80 ListenWXM80 Stop

You find our weather info also at:

UK Metoffice

WeatherCloud

Weather Underground

Northeastern Weather Network

AWEKAS

Citizen Weather Observer Program (CWOP)

HAMweather, WeatherForYou, PWS Weather


Weather Underground History page Text

Daily Summary for January 12, 2018 Units:  English    Metric   Both
« Previous Day
Next Day »
Daily Weekly Monthly Yearly Custom
  High: Low: Average:
Temperature: TemperatureF °F 37.3 °F 53.5 °F
Dew Point: DewpointF °F 36.1 °F 52.8 °F
Humidity: Humidity % 94 % 97 %
Wind Speed: WindSpeedMPH mph 0.0 mph 5.7 mph
Wind Gust: WindSpeedGustMPH mph - -
Wind:- - SSW
Pressure: PressureIn in 29.31 in -
Precipitation: 0.04 in    
Historical Graphs
 
 
Tabular Data for January 12, 2018
Time Temperature Dew Point Pressure Wind Wind Speed Wind Gust Humidity Rainfall Rate (Hourly)
TemperatureF °F DewpointF °F PressureIn in Calm     Humidity % HourlyPrecipIn in
00:01 37.8 °F 36.2 °F 29.97 in Calm     94 % 0.00 in
00:08 37.7 °F 36.4 °F 29.97 in Calm     95 % 0.00 in
00:14 37.6 °F 36.3 °F 29.96 in Calm     95 % 0.00 in
00:24 37.5 °F 36.2 °F 29.95 in Calm   1.0 mph 95 % 0.00 in
00:33 37.4 °F 36.1 °F 29.95 in Calm     95 % 0.00 in
00:38 37.4 °F 36.1 °F 29.94 in Calm     95 % 0.00 in
00:45 37.4 °F 36.1 °F 29.94 in WNW 0.6 mph 2.0 mph 95 % 0.00 in
00:54 37.4 °F 36.1 °F 29.94 in Calm     95 % 0.00 in
01:00 37.5 °F 36.2 °F 29.93 in Calm     95 % 0.00 in
01:06 37.6 °F 36.3 °F 29.93 in Calm     95 % 0.00 in
01:15 37.9 °F 36.9 °F 29.93 in Calm     96 % 0.00 in
01:20 37.9 °F 36.9 °F 29.93 in Calm     96 % 0.00 in
01:27 38.0 °F 37.0 °F 29.93 in Calm     96 % 0.00 in
01:32 38.2 °F 37.2 °F 29.93 in WNW 0.1 mph 1.0 mph 96 % 0.00 in
01:37 38.3 °F 37.3 °F 29.93 in Calm     96 % 0.00 in
01:42 38.3 °F 37.3 °F 29.92 in Calm     96 % 0.00 in
01:48 38.3 °F 37.3 °F 29.92 in WNW 0.2 mph 3.5 mph 96 % 0.00 in
01:54 38.3 °F 37.3 °F 29.92 in WNW 0.4 mph 2.0 mph 96 % 0.00 in
01:59 38.2 °F 37.2 °F 29.92 in Calm   1.2 mph 96 % 0.00 in
02:05 38.1 °F 37.1 °F 29.92 in Calm     96 % 0.00 in
02:10 37.9 °F 36.9 °F 29.92 in Calm   1.2 mph 96 % 0.00 in
02:18 37.7 °F 36.7 °F 29.91 in Calm   2.3 mph 96 % 0.00 in
02:24 37.6 °F 36.6 °F 29.91 in Calm     96 % 0.00 in
02:29 37.5 °F 36.5 °F 29.91 in Calm     96 % 0.00 in
02:34 37.5 °F 36.5 °F 29.90 in Calm     96 % 0.00 in
02:42 37.4 °F 36.4 °F 29.90 in Calm     96 % 0.00 in
02:47 37.4 °F 36.4 °F 29.90 in Calm     96 % 0.00 in
03:01 37.3 °F 36.3 °F 29.89 in Calm     96 % 0.00 in
03:09 37.4 °F 36.4 °F 29.89 in Calm     96 % 0.00 in
03:15 37.4 °F 36.4 °F 29.88 in WNW 0.6 mph 1.0 mph 96 % 0.00 in
03:33 37.6 °F 36.6 °F 29.87 in Calm     96 % 0.00 in
03:42 37.7 °F 36.7 °F 29.86 in Calm     96 % 0.00 in
03:52 37.7 °F 36.7 °F 29.86 in Calm     96 % 0.00 in
04:01 37.9 °F 36.9 °F 29.85 in WNW 0.1 mph 1.0 mph 96 % 0.00 in
04:18 40.8 °F 40.0 °F 29.84 in SW 4.9 mph 11.5 mph 97 % 0.00 in
04:31 47.5 °F 47.0 °F 29.83 in South 3.0 mph 8.0 mph 98 % 0.00 in
04:42 50.6 °F 50.1 °F 29.82 in South 1.9 mph 3.5 mph 98 % 0.00 in
04:51 51.2 °F 50.7 °F 29.82 in South 6.0 mph 8.0 mph 98 % 0.00 in
04:58 51.8 °F 51.3 °F 29.82 in SSW 2.9 mph 15.0 mph 98 % 0.00 in
05:05 52.1 °F 51.6 °F 29.82 in SW 3.1 mph 6.0 mph 98 % 0.00 in
05:22 53.3 °F 52.8 °F 29.82 in South 7.0 mph 12.7 mph 98 % 0.00 in
05:42 54.3 °F 53.7 °F 29.80 in SSW 4.7 mph 10.4 mph 98 % 0.00 in
05:50 54.5 °F 53.9 °F 29.80 in South 6.1 mph 9.2 mph 98 % 0.00 in
05:56 54.6 °F 54.0 °F 29.79 in South 6.3 mph 11.5 mph 98 % 0.00 in
06:08 55.0 °F 54.4 °F 29.79 in South 6.8 mph 10.4 mph 98 % 0.00 in
06:13 55.4 °F 54.8 °F 29.80 in South 7.2 mph 11.5 mph 98 % 0.00 in
06:26 56.2 °F 55.6 °F 29.79 in SW 4.8 mph 16.1 mph 98 % 0.00 in
06:31 56.4 °F 55.8 °F 29.79 in South 6.6 mph 12.7 mph 98 % 0.00 in
06:36 56.6 °F 56.0 °F 29.79 in South 7.1 mph 11.5 mph 98 % 0.00 in
06:41 56.6 °F 56.0 °F 29.79 in South 7.1 mph 12.7 mph 98 % 0.00 in
06:48 56.7 °F 56.1 °F 29.78 in SSW 6.4 mph 13.8 mph 98 % 0.00 in
06:55 56.6 °F 56.0 °F 29.78 in South 5.6 mph 9.2 mph 98 % 0.00 in
07:01 56.9 °F 56.3 °F 29.78 in South 11.2 mph 18.4 mph 98 % 0.00 in
07:12 57.1 °F 56.5 °F 29.77 in SE 8.4 mph 15.0 mph 98 % 0.00 in
07:30 57.1 °F 56.5 °F 29.76 in South 6.6 mph 15.0 mph 98 % 0.00 in
07:37 57.2 °F 56.6 °F 29.76 in South 9.5 mph 12.7 mph 98 % 0.00 in
07:43 57.2 °F 56.6 °F 29.76 in SSW 6.1 mph 11.5 mph 98 % 0.00 in
07:54 57.4 °F 56.8 °F 29.75 in SSW 6.6 mph 13.8 mph 98 % 0.00 in
08:07 57.7 °F 57.1 °F 29.75 in SSW 7.2 mph 9.2 mph 98 % 0.00 in
08:19 57.7 °F 57.1 °F 29.74 in South 6.6 mph 19.6 mph 98 % 0.00 in
08:27 57.8 °F 57.2 °F 29.74 in SSE 5.2 mph 9.2 mph 98 % 0.00 in
08:35 57.8 °F 57.0 °F 29.74 in South 9.8 mph 17.3 mph 97 % 0.00 in
08:40 58.1 °F 57.3 °F 29.74 in South 9.6 mph 13.8 mph 97 % 0.00 in
08:50 58.3 °F 57.5 °F 29.74 in SSW 9.2 mph 16.1 mph 97 % 0.00 in
09:03 58.7 °F 57.9 °F 29.72 in South 10.1 mph 24.2 mph 97 % 0.00 in
09:13 58.8 °F 58.0 °F 29.72 in South 9.6 mph 19.6 mph 97 % 0.00 in
09:19 58.8 °F 58.0 °F 29.72 in South 7.5 mph 19.6 mph 97 % 0.00 in
09:25 58.7 °F 57.9 °F 29.71 in South 5.9 mph 10.4 mph 97 % 0.00 in
09:30 58.5 °F 57.7 °F 29.72 in South 8.8 mph 18.0 mph 97 % 0.00 in
09:43 58.6 °F 57.8 °F 29.71 in South 8.8 mph 13.8 mph 97 % 0.00 in
10:01 59.3 °F 58.4 °F 29.70 in SSW 13.3 mph 20.0 mph 97 % 0.00 in
10:35 59.6 °F 58.7 °F 29.68 in SW 10.5 mph 19.6 mph 97 % 0.00 in
10:43 59.6 °F 58.7 °F 29.68 in SSE 9.5 mph 18.0 mph 97 % 0.00 in
10:52 60.1 °F 59.2 °F 29.67 in South 10.3 mph 18.4 mph 97 % 0.00 in
10:58 60.0 °F 59.1 °F 29.66 in SSW 12.7 mph 16.1 mph 97 % 0.00 in
11:03 60.0 °F 59.1 °F 29.66 in SE 10.5 mph 20.7 mph 97 % 0.00 in
11:10 59.8 °F 58.7 °F 29.67 in SSE 5.9 mph 10.4 mph 96 % 0.00 in
11:15 59.8 °F 58.7 °F 29.66 in SSW 9.0 mph 15.0 mph 96 % 0.00 in
11:22 59.8 °F 58.9 °F 29.66 in South 8.6 mph 11.5 mph 97 % 0.00 in
11:29 60.0 °F 59.1 °F 29.65 in SSW 11.6 mph 19.6 mph 97 % 0.00 in
11:42 59.9 °F 59.0 °F 29.64 in SSW 9.7 mph 20.0 mph 97 % 0.00 in
11:47 59.8 °F 58.9 °F 29.65 in SSW 8.0 mph 18.4 mph 97 % 0.00 in
11:52 59.8 °F 58.9 °F 29.64 in South 8.3 mph 26.5 mph 97 % 0.00 in
12:17 60.2 °F 59.3 °F 29.61 in South 7.2 mph 15.0 mph 97 % 0.00 in
12:59 61.2 °F 60.3 °F 29.58 in SSW 13.5 mph 17.3 mph 97 % 0.00 in
13:07 61.3 °F 60.4 °F 29.59 in South 9.3 mph 15.0 mph 97 % 0.00 in
13:19 61.4 °F 60.5 °F 29.58 in South 10.9 mph 17.3 mph 97 % 0.00 in
13:24 61.4 °F 60.8 °F 29.57 in SSW 8.6 mph 18.4 mph 98 % 0.00 in
13:30 61.5 °F 60.9 °F 29.57 in South 11.1 mph 19.0 mph 98 % 0.00 in
13:35 61.7 °F 61.1 °F 29.57 in SSW 5.0 mph 12.7 mph 98 % 0.00 in
13:40 61.7 °F 61.1 °F 29.57 in SSW 8.4 mph 18.4 mph 98 % 0.00 in
13:49 61.6 °F 61.0 °F 29.57 in South 5.2 mph 12.7 mph 98 % 0.00 in
13:55 61.5 °F 60.9 °F 29.58 in SW 9.3 mph 12.7 mph 98 % 0.00 in
14:05 61.2 °F 60.3 °F 29.57 in South 5.5 mph 11.5 mph 97 % 0.00 in
14:13 60.8 °F 59.9 °F 29.57 in SSW 6.0 mph 12.7 mph 97 % 0.00 in
14:30 60.4 °F 59.5 °F 29.56 in SW 6.8 mph 11.5 mph 97 % 0.00 in
14:44 60.4 °F 59.8 °F 29.56 in SSE 7.6 mph 12.0 mph 98 % 0.00 in
14:52 60.3 °F 59.7 °F 29.56 in SSE 3.5 mph 8.1 mph 98 % 0.00 in
14:57 60.2 °F 59.3 °F 29.55 in South 5.3 mph 8.0 mph 97 % 0.00 in
15:04 60.0 °F 59.1 °F 29.55 in South 6.0 mph 16.1 mph 97 % 0.00 in
15:09 59.9 °F 59.0 °F 29.55 in South 5.0 mph 6.9 mph 97 % 0.00 in
15:21 59.9 °F 59.3 °F 29.54 in South 6.0 mph 11.5 mph 98 % 0.00 in
15:25 59.9 °F 59.0 °F 29.54 in South 7.7 mph 15.0 mph 97 % 0.00 in
15:34 59.9 °F 59.3 °F 29.53 in South 9.0 mph 21.9 mph 98 % 0.00 in
15:42 60.2 °F 59.6 °F 29.52 in SSW 6.2 mph 11.5 mph 98 % 0.00 in
15:47 60.5 °F 59.9 °F 29.52 in South 9.2 mph 12.7 mph 98 % 0.00 in
15:59 61.0 °F 60.4 °F 29.51 in SSW 8.7 mph 13.8 mph 98 % 0.00 in
16:04 61.1 °F 60.5 °F 29.51 in South 9.8 mph 13.8 mph 98 % 0.00 in
16:11 61.2 °F 60.6 °F 29.51 in SSW 9.5 mph 18.4 mph 98 % 0.00 in
16:31 60.8 °F 60.2 °F 29.51 in South 7.2 mph 16.1 mph 98 % 0.00 in
16:53 60.7 °F 60.1 °F 29.51 in SSW 8.9 mph 18.0 mph 98 % 0.00 in
16:58 60.7 °F 60.1 °F 29.51 in WSW 8.4 mph 19.6 mph 98 % 0.00 in
17:03 60.8 °F 60.2 °F 29.51 in SSW 7.4 mph 12.7 mph 98 % 0.00 in
17:09 60.5 °F 59.9 °F 29.51 in South 9.0 mph 12.7 mph 98 % 0.00 in
17:23 59.8 °F 59.2 °F 29.50 in SSE 7.5 mph 18.4 mph 98 % 0.00 in
17:28 59.7 °F 59.1 °F 29.50 in SSE 6.1 mph 13.8 mph 98 % 0.00 in
17:34 59.6 °F 59.0 °F 29.50 in South 6.1 mph 11.5 mph 98 % 0.00 in
17:39 59.5 °F 58.9 °F 29.50 in South 7.4 mph 11.5 mph 98 % 0.00 in
17:45 59.4 °F 58.8 °F 29.50 in SW 4.3 mph 8.0 mph 98 % 0.00 in
17:53 59.2 °F 58.6 °F 29.50 in South 9.0 mph 15.0 mph 98 % 0.00 in
18:00 59.1 °F 58.5 °F 29.50 in SSW 9.6 mph 14.0 mph 98 % 0.00 in
18:05 58.9 °F 58.3 °F 29.50 in SSW 7.1 mph 17.3 mph 98 % 0.00 in
18:10 58.8 °F 58.2 °F 29.50 in South 8.2 mph 15.0 mph 98 % 0.00 in
18:19 58.6 °F 58.0 °F 29.50 in SSW 7.2 mph 10.4 mph 98 % 0.00 in
18:24 58.4 °F 57.8 °F 29.50 in WSW 9.0 mph 14.0 mph 98 % 0.00 in
18:35 57.9 °F 57.1 °F 29.50 in SSW 6.5 mph 11.5 mph 97 % 0.00 in
18:46 57.3 °F 56.5 °F 29.50 in ESE 5.7 mph 11.5 mph 97 % 0.00 in
18:55 56.9 °F 56.1 °F 29.50 in South 7.0 mph 11.5 mph 97 % 0.00 in
19:05 56.5 °F 55.7 °F 29.50 in SSW 3.7 mph 10.4 mph 97 % 0.00 in
19:10 56.4 °F 55.6 °F 29.49 in South 7.7 mph 12.0 mph 97 % 0.00 in
19:17 56.1 °F 55.3 °F 29.49 in South 5.1 mph 10.0 mph 97 % 0.00 in
19:26 55.9 °F 55.1 °F 29.48 in South 3.7 mph 5.8 mph 97 % 0.00 in
19:36 55.8 °F 55.2 °F 29.48 in SSW 4.5 mph 7.0 mph 98 % 0.00 in
19:41 55.7 °F 54.9 °F 29.47 in South 4.8 mph 11.5 mph 97 % 0.00 in
19:47 55.6 °F 54.8 °F 29.47 in SSW 5.1 mph 6.9 mph 97 % 0.00 in
19:52 55.7 °F 54.9 °F 29.47 in South 6.1 mph 9.2 mph 97 % 0.01 in
20:13 56.0 °F 55.4 °F 29.45 in SSW 4.9 mph 8.1 mph 98 % 0.01 in
20:18 55.9 °F 55.3 °F 29.44 in WSW 4.0 mph 8.1 mph 98 % 0.02 in
20:27 55.8 °F 55.2 °F 29.44 in South 6.9 mph 11.5 mph 98 % 0.02 in
20:35 55.8 °F 55.2 °F 29.44 in SSW 5.0 mph 10.0 mph 98 % 0.00 in
20:40 55.9 °F 55.4 °F 29.44 in SSW 6.0 mph 10.0 mph 98 % 0.00 in
20:48 56.1 °F 55.5 °F 29.44 in SSW 5.8 mph 11.0 mph 98 % 0.01 in
20:56 56.1 °F 55.5 °F 29.43 in SSW 4.9 mph 8.1 mph 98 % 0.01 in
21:05 55.9 °F 55.3 °F 29.43 in SSW 5.1 mph 6.9 mph 98 % 0.01 in
21:15 55.8 °F 55.2 °F 29.43 in South 8.3 mph 11.5 mph 98 % 0.01 in
21:21 55.9 °F 55.3 °F 29.42 in SSW 5.2 mph 8.1 mph 98 % 0.00 in
21:31 55.9 °F 55.3 °F 29.41 in South 3.5 mph 6.9 mph 98 % 0.00 in
21:40 55.9 °F 55.3 °F 29.41 in SSE 3.6 mph 5.8 mph 98 % 0.00 in
21:50 56.2 °F 55.6 °F 29.39 in South 4.8 mph 8.1 mph 98 % 0.00 in
21:55 56.4 °F 55.8 °F 29.39 in SSW 3.3 mph 9.2 mph 98 % 0.00 in
22:03 56.9 °F 56.3 °F 29.38 in South 4.4 mph 6.9 mph 98 % 0.00 in
22:21 58.1 °F 57.5 °F 29.37 in SSW 7.6 mph 10.4 mph 98 % 0.01 in
22:45 60.5 °F 60.2 °F 29.35 in South 7.8 mph 12.7 mph 99 % 0.01 in
22:50 60.8 °F 60.5 °F 29.35 in South 10.9 mph 18.4 mph 99 % 0.01 in
22:57 61.1 °F 60.8 °F 29.34 in South 7.3 mph 15.0 mph 99 % 0.01 in
23:02 61.4 °F 61.1 °F 29.34 in SSW 10.3 mph 19.6 mph 99 % 0.01 in
23:14 61.3 °F 61.0 °F 29.34 in SSE 7.4 mph 18.4 mph 99 % 0.01 in
23:27 61.3 °F 61.0 °F 29.33 in SSW 7.2 mph 11.5 mph 99 % 0.00 in
23:33 61.1 °F 60.8 °F 29.32 in South 13.1 mph 21.9 mph 99 % 0.00 in
23:43 60.4 °F 59.8 °F 29.32 in SSW 8.5 mph 17.3 mph 98 % 0.00 in
23:49 60.1 °F 59.5 °F 29.31 in South 8.2 mph 11.5 mph 98 % 0.00 in
23:55 59.9 °F 59.3 °F 29.31 in SW 10.0 mph 16.1 mph 98 % 0.01 in
Crab Meadow Weather
Compliments of Weather Underground - 2.25 mb

Script developed by  Jim McMurry - jmcmurry@mwt.net Adapted for the template by  Wim van der Kuil - Leuven-Template.eu

Clouds: Partly sunny and partly cloudy indicate the same amount of cloud coverage - about 50 percent. Partly sunny is used during the daytime, and partly cloudy is used at night when there is no sun.